Terminal Aerodrome Forecast
Issued by NWS

Home | Current Version | Previous Version | Text Only | Print | Product List | Glossary On
Versions: 1 2 3 4 5 6 7 8 9 10 11 12 13
000
FTAK31 PAFA 252325
TAFAOM
TAF
PAOM 252325Z 2600/2624 23008KT P6SM SCT050 SCT150
     FM260300 27009KT P6SM SCT150
     FM261800 23007KT P6SM BKN120=

USA.gov is the U.S. government's official web portal to all federal, state and local government web resources and services.